CYVR/YVR METAR and TAF weather

Enter ICAO airport designator
Station Type Date Time Source
CYVR METAR 2021/09/20 05:00 UTC NOAA

CYVR 200500Z 30005KT 15SM BKN015 BKN077 13/13 A3015 RMK CU6AC1 SLP210


Station Type Date Time Source
CYVR Decoded METAR 2021/09/20 05:00 UTC NOAA

Vancouver International Air-Port, B. C., Canada (CYVR) 49-11N 123-10W 2M
Sep 20, 2021 - 01:00 AM EDT / 2021.09.20 0500 UTC
Wind: from the WNW (300 degrees) at 6 MPH (5 KT):0
Visibility: 15 mile(s):0
Sky conditions: mostly cloudy
Temperature: 55 F (13 C)
Dew Point: 55 F (13 C)
Relative Humidity: 100%
Pressure (altimeter): 30.15 in. Hg (1020 hPa)
ob: CYVR 200500Z 30005KT 15SM BKN015 BKN077 13/13 A3015 RMK CU6AC1 SLP210
cycle: 5

Station Type Date Time Source
CYVR TAF 2021/09/20 06:39 UTC NOAA

TAF CYVR 200538Z 2006/2112 30006KT P6SM SCT015 BKN070
TEMPO 2006/2017 3SM -SHRA -DZ BR BKN008 OVC015
BECMG 2013/2015 10007KT
FM201700 12010KT P6SM SCT012 BKN040 OVC080
TEMPO 2017/2021 BKN012 OVC040
FM202100 14010KT P6SM FEW030 BKN060
BECMG 2102/2104 08006KT
RMK NXT FCST BY 200900Z

Example: see airport list